Time;durP1;ratioP1;P1;durP2;ratioP2;P2;SDS_P1;SDS_P2;PMS_P1;PMS_P2;Temp;Humidity;BMP_temperature;BMP_pressure;BME280_temperature;BME280_humidity;BME280_pressure;Samples;Min_cycle;Max_cycle;Signal;HPM_P1;HPM_P2
2022/08/30 00:02:27;;;;;;;;;4.75;4.00;;;;;24.52;30.46;101218.59;5124025;27;45342;-65
2022/08/30 00:04:53;;;;;;;;;5.00;4.50;;;;;24.51;30.42;101216.88;5123927;27;45414;-65
2022/08/30 00:07:19;;;;;;;;;2.25;2.00;;;;;24.46;30.22;101208.25;5124014;27;45318;-65
2022/08/30 00:09:44;;;;;;;;;5.00;4.00;;;;;24.48;30.54;101217.06;5123984;27;45387;-65
2022/08/30 00:12:09;;;;;;;;;3.25;3.25;;;;;24.45;30.63;101220.84;5123648;27;45389;-65
2022/08/30 00:14:35;;;;;;;;;5.75;4.25;;;;;24.43;30.89;101224.59;5124131;27;45322;-65
2022/08/30 00:17:01;;;;;;;;;6.00;4.00;;;;;24.42;30.68;101225.53;5123942;27;45346;-65
2022/08/30 00:19:26;;;;;;;;;5.50;5.50;;;;;24.39;31.01;101228.41;5123991;27;45543;-65
2022/08/30 00:21:51;;;;;;;;;4.00;4.00;;;;;24.38;30.90;101224.88;5123756;27;46488;-65
2022/08/30 00:24:17;;;;;;;;;4.25;3.50;;;;;24.37;30.76;101224.97;5123815;27;45456;-65
2022/08/30 00:26:42;;;;;;;;;5.50;4.75;;;;;24.34;30.84;101229.56;5123734;27;45227;-65
2022/08/30 00:29:07;;;;;;;;;6.25;6.00;;;;;24.34;30.55;101229.56;5123677;27;45206;-65
2022/08/30 00:31:33;;;;;;;;;4.75;4.50;;;;;24.34;30.66;101226.03;5123354;27;46411;-64
2022/08/30 00:33:58;;;;;;;;;5.75;4.75;;;;;24.34;30.96;101223.34;5123879;27;45233;-65
2022/08/30 00:36:23;;;;;;;;;5.00;4.00;;;;;24.32;30.93;101212.69;5122162;27;45365;-64
2022/08/30 00:38:48;;;;;;;;;2.50;2.50;;;;;24.33;31.01;101219.78;5123127;27;45389;-65
2022/08/30 00:41:14;;;;;;;;;4.00;4.00;;;;;24.33;30.90;101214.41;5123273;27;50904;-65
2022/08/30 00:43:39;;;;;;;;;5.00;4.25;;;;;24.33;30.85;101209.03;5123578;27;45478;-65
2022/08/30 00:46:07;;;;;;;;;7.75;4.00;;;;;24.32;31.16;101203.78;5105012;27;45343;-65
2022/08/30 00:48:36;;;;;;;;;4.00;4.00;;;;;24.33;31.01;101201.00;5123389;27;45479;-64
2022/08/30 00:51:06;;;;;;;;;6.50;5.25;;;;;24.34;30.97;101205.41;5122975;27;46176;-64
2022/08/30 00:53:36;;;;;;;;;8.00;5.00;;;;;24.32;30.94;101201.94;5104417;27;45521;-65
2022/08/30 00:56:03;;;;;;;;;6.25;5.00;;;;;24.36;30.64;101213.34;5123227;27;45242;-63
2022/08/30 00:58:32;;;;;;;;;4.75;3.75;;;;;24.36;31.13;101207.13;5122933;27;45403;-64
2022/08/30 01:01:00;;;;;;;;;5.25;4.75;;;;;24.36;30.93;101215.19;5104339;27;47787;-65
2022/08/30 01:03:26;;;;;;;;;4.25;3.50;;;;;24.34;31.07;101216.16;5123063;27;45378;-65
2022/08/30 01:05:52;;;;;;;;;7.75;4.25;;;;;24.34;30.97;101208.09;5123042;27;45435;-65
2022/08/30 01:08:20;;;;;;;;;5.50;5.00;;;;;24.34;31.15;101210.78;5121833;27;45239;-65
2022/08/30 01:10:46;;;;;;;;;4.75;4.00;;;;;24.32;30.89;101211.84;5122860;27;47015;-65
2022/08/30 01:13:13;;;;;;;;;9.50;5.25;;;;;24.30;30.70;101216.44;5121380;27;45279;-65
2022/08/30 01:15:41;;;;;;;;;7.00;5.50;;;;;24.26;31.31;101209.53;5122936;27;45264;-65
2022/08/30 01:18:07;;;;;;;;;5.75;5.50;;;;;24.28;30.97;101215.69;5122794;27;45231;-65
2022/08/30 01:20:42;;;;;;;;;9.00;5.50;;;;;24.29;31.32;101220.09;5121418;27;46202;-65
2022/08/30 01:23:12;;;;;;;;;9.00;4.00;;;;;24.26;31.11;101220.28;5122641;27;45256;-64
2022/08/30 01:25:41;;;;;;;;;8.00;8.00;;;;;24.27;30.69;101222.88;5122885;27;45267;-64
2022/08/30 01:28:10;;;;;;;;;7.50;4.75;;;;;24.27;31.15;101227.38;5122463;27;45193;-65
2022/08/30 01:30:37;;;;;;;;;5.25;5.00;;;;;24.27;31.17;101230.06;5122572;27;45323;-65
2022/08/30 01:33:04;;;;;;;;;4.00;4.00;;;;;24.27;31.31;101235.44;5122427;27;45468;-64
2022/08/30 01:35:45;;;;;;;;;3.00;3.00;;;;;24.26;31.06;101237.25;5122815;27;45287;-65
2022/08/30 01:38:12;;;;;;;;;6.25;4.00;;;;;24.25;31.23;101235.56;5122018;27;45200;-66
2022/08/30 01:40:38;;;;;;;;;7.50;5.00;;;;;24.25;31.03;101243.59;5122359;27;46243;-64
2022/08/30 01:43:05;;;;;;;;;7.25;3.25;;;;;24.25;31.38;101262.41;5122092;27;45407;-65
2022/08/30 01:45:31;;;;;;;;;5.00;3.50;;;;;24.25;31.31;101266.88;5122721;27;45318;-65
2022/08/30 01:47:56;;;;;;;;;8.00;6.00;;;;;24.24;31.18;101282.16;5122453;27;45350;-65
2022/08/30 01:50:21;;;;;;;;;5.25;3.50;;;;;24.21;31.30;101285.00;5122324;27;46249;-65
2022/08/30 01:52:47;;;;;;;;;6.25;5.50;;;;;24.19;31.09;101273.53;5103480;27;45294;-65
2022/08/30 01:55:12;;;;;;;;;5.00;5.00;;;;;24.16;31.19;101279.94;5122542;27;45165;-65
2022/08/30 01:57:38;;;;;;;;;8.25;4.00;;;;;24.15;31.22;101269.28;5122001;27;45215;-65
2022/08/30 02:00:06;;;;;;;;;8.50;5.25;;;;;24.14;31.53;101275.66;5122163;27;45948;-65
2022/08/30 02:02:31;;;;;;;;;4.75;3.25;;;;;24.13;31.55;101266.72;5122102;27;45498;-65
2022/08/30 02:04:57;;;;;;;;;6.25;5.25;;;;;24.11;32.19;101263.28;5122298;27;45611;-64
2022/08/30 02:07:23;;;;;;;;;6.00;4.00;;;;;24.08;32.12;101263.47;5121804;27;45310;-65
2022/08/30 02:09:48;;;;;;;;;6.50;5.00;;;;;24.04;32.33;101247.63;5122089;27;45340;-65
2022/08/30 02:12:14;;;;;;;;;6.00;4.75;;;;;24.01;32.52;101241.53;5103190;27;45815;-65
2022/08/30 02:14:39;;;;;;;;;8.50;5.50;;;;;23.98;32.50;101247.06;5122187;27;45279;-65
2022/08/30 02:17:08;;;;;;;;;6.50;4.00;;;;;23.95;32.99;101247.28;5121862;27;45397;-65
2022/08/30 02:19:33;;;;;;;;;3.75;3.00;;;;;23.92;32.97;101243.91;5121740;27;45547;-65
2022/08/30 02:21:58;;;;;;;;;8.25;7.25;;;;;23.89;33.01;101238.72;5102472;27;45420;-65
2022/08/30 02:24:24;;;;;;;;;7.00;6.25;;;;;23.85;33.14;101238.91;5121861;27;45303;-65
2022/08/30 02:26:51;;;;;;;;;4.25;3.75;;;;;23.81;33.31;101233.81;5103466;27;45252;-65
2022/08/30 02:29:17;;;;;;;;;5.25;5.25;;;;;23.68;33.69;101226.53;5121545;27;47028;-65
2022/08/30 02:31:43;;;;;;;;;5.75;5.75;;;;;23.73;33.58;101236.97;5121538;27;45322;-65
2022/08/30 02:34:08;;;;;;;;;7.00;5.00;;;;;23.67;33.70;101251.63;5121867;27;45506;-65
2022/08/30 02:36:33;;;;;;;;;7.75;6.25;;;;;23.65;33.67;101258.91;5121603;27;45295;-65
2022/08/30 02:38:59;;;;;;;;;4.00;3.50;;;;;23.61;33.77;101254.69;5121196;27;46447;-65
2022/08/30 02:41:24;;;;;;;;;4.75;4.75;;;;;23.56;34.05;101254.13;5121425;27;45314;-66
2022/08/30 02:43:50;;;;;;;;;5.00;4.50;;;;;23.43;33.93;101240.56;5121660;27;45260;-65
2022/08/30 02:46:16;;;;;;;;;4.75;4.25;;;;;23.46;34.36;101252.94;5121404;27;45302;-66
2022/08/30 02:48:42;;;;;;;;;3.50;3.00;;;;;23.42;34.59;101260.31;5102986;27;48147;-65
2022/08/30 02:51:11;;;;;;;;;8.25;5.50;;;;;23.37;34.29;101257.91;5119959;27;45433;-65
2022/08/30 02:53:37;;;;;;;;;5.00;5.00;;;;;23.35;34.50;101267.00;5121542;27;45293;-65
2022/08/30 02:56:02;;;;;;;;;3.50;3.50;;;;;23.30;34.43;101269.94;5121167;27;45574;-66
2022/08/30 02:58:28;;;;;;;;;5.50;5.25;;;;;23.29;34.01;101268.22;5121279;27;46130;-65
2022/08/30 03:00:53;;;;;;;;;7.25;5.50;;;;;23.26;34.42;101254.13;5121396;27;45337;-64
2022/08/30 03:03:19;;;;;;;;;10.00;6.25;;;;;23.24;34.53;101242.66;5103140;27;45509;-65
2022/08/30 03:05:44;;;;;;;;;7.75;5.75;;;;;23.21;34.49;101231.16;5121180;27;45349;-64
2022/08/30 03:08:10;;;;;;;;;7.00;6.00;;;;;23.19;35.05;101232.19;5121165;27;45258;-67
2022/08/30 03:10:37;;;;;;;;;6.00;5.00;;;;;23.16;35.02;101243.13;5121000;27;45350;-65
2022/08/30 03:13:04;;;;;;;;;6.00;5.50;;;;;23.15;35.00;101260.13;5121290;27;45436;-68
2022/08/30 03:15:29;;;;;;;;;7.00;5.25;;;;;23.12;35.03;101260.28;5120959;27;45272;-65
2022/08/30 03:17:55;;;;;;;;;5.00;4.00;;;;;23.11;35.01;101282.69;5121023;27;46179;-65
2022/08/30 03:20:22;;;;;;;;;5.00;4.25;;;;;23.05;34.94;101289.25;5120959;27;45426;-65
2022/08/30 03:22:47;;;;;;;;;5.00;4.25;;;;;23.01;35.29;101298.44;5102504;27;45390;-66
2022/08/30 03:25:13;;;;;;;;;5.75;4.50;;;;;22.97;35.18;101289.72;5102389;27;45322;-65
2022/08/30 03:27:38;;;;;;;;;4.00;4.00;;;;;22.94;35.42;101284.50;5121036;27;45415;-65
2022/08/30 03:30:05;;;;;;;;;8.25;5.75;;;;;22.90;35.25;101282.97;5121112;27;45437;-66
2022/08/30 03:32:30;;;;;;;;;8.00;5.75;;;;;22.83;35.47;101268.19;5124746;27;45381;-64
2022/08/30 03:34:56;;;;;;;;;5.50;5.50;;;;;22.82;35.05;101274.53;5124479;27;45304;-65
2022/08/30 03:37:21;;;;;;;;;10.00;6.25;;;;;22.79;35.22;101269.34;5124029;27;45363;-65
2022/08/30 03:39:47;;;;;;;;;8.00;6.75;;;;;22.77;35.33;101265.91;5124374;27;47273;-66
2022/08/30 03:42:13;;;;;;;;;5.00;5.00;;;;;22.75;35.74;101249.88;5124488;27;45236;-66
2022/08/30 03:44:39;;;;;;;;;7.00;6.25;;;;;22.73;35.77;101239.28;5124330;27;45258;-65
2022/08/30 03:47:04;;;;;;;;;6.50;6.50;;;;;22.71;35.76;101218.88;5124189;27;45492;-65
2022/08/30 03:49:30;;;;;;;;;5.75;4.25;;;;;22.69;35.65;101210.94;5124377;27;45421;-66
2022/08/30 03:51:56;;;;;;;;;4.50;3.75;;;;;22.68;35.79;101213.72;5106269;27;45309;-66
2022/08/30 03:54:21;;;;;;;;;5.25;5.25;;;;;22.58;35.95;101191.06;5124049;27;45239;-66
2022/08/30 03:56:46;;;;;;;;;9.50;6.25;;;;;22.65;36.08;101211.19;5124194;27;45970;-66
2022/08/30 03:59:12;;;;;;;;;6.75;6.00;;;;;22.61;36.14;101204.31;5123891;27;45253;-66
2022/08/30 04:01:38;;;;;;;;;4.50;4.50;;;;;22.60;36.23;101192.72;5124318;27;45433;-66
2022/08/30 04:04:03;;;;;;;;;5.75;5.50;;;;;22.58;36.12;101185.72;5124026;27;45344;-66
2022/08/30 04:06:29;;;;;;;;;4.75;4.50;;;;;22.53;36.34;101175.28;5124203;27;47142;-66
2022/08/30 04:08:54;;;;;;;;;6.00;4.25;;;;;22.53;36.31;101170.78;5123408;27;45353;-66
2022/08/30 04:11:20;;;;;;;;;3.50;3.00;;;;;22.51;36.46;101159.28;5124189;27;45442;-66
2022/08/30 04:13:48;;;;;;;;;5.50;4.75;;;;;22.50;36.80;101156.72;5123773;27;45485;-67
2022/08/30 04:16:14;;;;;;;;;6.75;6.25;;;;;22.50;36.39;101167.41;5123915;27;47552;-67
2022/08/30 04:18:39;;;;;;;;;7.00;5.50;;;;;22.49;36.54;101165.69;5123731;27;45169;-66
2022/08/30 04:21:05;;;;;;;;;7.75;7.75;;;;;22.48;36.33;101155.97;5124083;27;45423;-67
2022/08/30 04:23:30;;;;;;;;;7.50;6.25;;;;;22.46;36.42;101156.03;5123665;27;45239;-66
2022/08/30 04:25:57;;;;;;;;;6.00;6.00;;;;;22.45;36.84;101164.16;5123712;27;45991;-66
2022/08/30 04:28:23;;;;;;;;;7.75;5.75;;;;;22.42;36.52;101156.31;5123532;27;45609;-66
2022/08/30 04:30:48;;;;;;;;;6.75;5.00;;;;;22.33;36.30;101155.00;5123850;27;45308;-67
2022/08/30 04:33:15;;;;;;;;;6.25;6.25;;;;;22.38;36.92;101164.50;5123496;27;45396;-67
2022/08/30 04:35:42;;;;;;;;;6.75;5.75;;;;;22.37;36.83;101177.97;5123630;27;46251;-66
2022/08/30 04:38:09;;;;;;;;;5.00;5.00;;;;;22.34;36.95;101187.00;5123150;27;45403;-67
2022/08/30 04:40:35;;;;;;;;;8.25;7.50;;;;;;;;5123756;27;45290;-66
2022/08/30 04:43:00;;;;;;;;;6.00;6.00;;;;;22.24;36.77;101189.34;5121859;27;45259;-66
2022/08/30 04:45:26;;;;;;;;;5.50;5.00;;;;;22.24;36.99;101197.38;5104942;27;47100;-66
2022/08/30 04:47:51;;;;;;;;;6.25;5.00;;;;;22.21;36.69;101194.00;5123395;27;45243;-66
2022/08/30 04:50:19;;;;;;;;;5.25;5.00;;;;;22.23;36.82;101195.63;5105125;27;45455;-66
2022/08/30 04:52:44;;;;;;;;;5.50;5.50;;;;;22.20;36.96;101193.16;5122958;27;45360;-67
2022/08/30 04:55:11;;;;;;;;;5.00;5.00;;;;;22.22;36.42;101203.75;5123244;27;46375;-66
2022/08/30 04:57:39;;;;;;;;;6.75;6.75;;;;;22.21;36.51;101197.56;5123111;27;45346;-67
2022/08/30 05:00:07;;;;;;;;;7.00;7.00;;;;;22.20;36.72;101209.22;5123304;27;45318;-66
2022/08/30 05:02:33;;;;;;;;;6.75;6.25;;;;;22.17;36.68;101208.50;5104565;27;45427;-66
2022/08/30 05:07:45;;;;;;;;;7.50;7.25;;;;;22.13;36.82;101196.25;5123003;27;45462;-67
2022/08/30 05:10:10;;;;;;;;;7.00;7.00;;;;;22.13;36.55;101190.91;5122999;27;45240;-66
2022/08/30 05:12:36;;;;;;;;;9.50;8.75;;;;;22.13;36.64;101198.94;5122875;27;45402;-66
2022/08/30 05:15:02;;;;;;;;;8.00;6.50;;;;;22.13;36.90;101198.94;5121523;27;47318;-67
2022/08/30 05:17:27;;;;;;;;;9.00;7.75;;;;;22.12;37.31;101202.56;5122892;27;45217;-66
2022/08/30 05:19:52;;;;;;;;;6.00;5.75;;;;;22.13;37.16;101201.63;5123145;27;45211;-66
2022/08/30 05:22:18;;;;;;;;;7.50;7.00;;;;;22.12;37.12;101206.09;5122809;27;45487;-66
2022/08/30 05:24:43;;;;;;;;;6.00;6.00;;;;;22.12;37.28;101203.41;5122830;27;46172;-66
2022/08/30 05:27:08;;;;;;;;;6.00;6.00;;;;;22.13;37.21;101205.13;5121726;27;45365;-66
2022/08/30 05:29:34;;;;;;;;;6.00;6.00;;;;;22.12;36.92;101207.91;5122791;27;45257;-66
2022/08/30 05:31:59;;;;;;;;;8.00;8.00;;;;;22.12;36.99;101206.09;5122884;27;45219;-66
2022/08/30 05:34:25;;;;;;;;;8.00;6.50;;;;;22.12;36.83;101205.22;5121253;27;46632;-66
2022/08/30 05:36:52;;;;;;;;;9.25;6.25;;;;;22.09;36.98;101211.63;5122532;27;45226;-67
2022/08/30 05:39:17;;;;;;;;;8.00;6.00;;;;;22.10;37.31;101215.16;5121186;27;45370;-66
2022/08/30 05:41:42;;;;;;;;;7.00;6.25;;;;;22.09;37.08;101225.00;5122552;27;45391;-66
2022/08/30 05:44:09;;;;;;;;;6.75;5.75;;;;;22.08;37.45;101228.63;5122367;27;46280;-66
2022/08/30 05:46:35;;;;;;;;;6.75;6.00;;;;;22.05;37.58;101231.47;5122618;27;45321;-66
2022/08/30 05:49:02;;;;;;;;;18.25;14.75;;;;;22.06;37.08;101236.75;5122414;27;45317;-67
2022/08/30 05:51:29;;;;;;;;;11.50;10.00;;;;;22.05;37.63;101235.00;5122330;27;45215;-66
2022/08/30 05:53:57;;;;;;;;;53.00;42.75;;;;;22.07;37.78;101240.25;5121237;27;46303;-66
2022/08/30 05:56:29;;;;;;;;;10.00;9.00;;;;;22.07;37.45;101235.78;5122348;27;45323;-67
2022/08/30 05:58:55;;;;;;;;;8.25;6.75;;;;;22.07;37.40;101230.44;5122148;27;45204;-64
2022/08/30 06:01:27;;;;;;;;;6.50;6.50;;;;;22.10;37.44;101237.44;5122196;27;45239;-64
2022/08/30 06:03:55;;;;;;;;;8.00;6.50;;;;;22.09;37.40;101241.06;5111456;27;47128;-64
2022/08/30 06:06:22;;;;;;;;;8.00;7.75;;;;;22.11;37.55;101236.47;5121834;27;45437;-65
2022/08/30 06:08:48;;;;;;;;;8.75;6.50;;;;;22.12;37.67;101232.84;5086813;27;45505;-65
2022/08/30 06:11:18;;;;;;;;;7.25;7.00;;;;;22.14;37.94;101232.75;5105569;27;45453;-64
2022/08/30 06:13:43;;;;;;;;;6.00;5.00;;;;;22.15;37.66;101224.66;5089171;27;46747;-65
2022/08/30 06:16:14;;;;;;;;;8.25;8.25;;;;;22.16;38.04;101225.50;5120871;27;45440;-65
2022/08/30 06:18:39;;;;;;;;;9.75;6.50;;;;;22.21;37.83;101228.78;5121596;27;45263;-64
2022/08/30 06:21:05;;;;;;;;;7.75;7.00;;;;;22.23;37.56;101226.91;5107709;27;45369;-65
2022/08/30 06:23:30;;;;;;;;;9.25;7.25;;;;;22.16;37.77;101213.00;5121525;27;45577;-69
2022/08/30 06:26:02;;;;;;;;;7.50;7.00;;;;;22.23;37.77;101214.38;5120861;27;45538;-69
2022/08/30 06:28:28;;;;;;;;;6.50;6.00;;;;;22.25;37.61;101222.34;5121662;27;45395;-67
2022/08/30 06:30:53;;;;;;;;;8.75;8.75;;;;;22.29;38.17;101226.56;5120855;27;45318;-66
2022/08/30 06:33:18;;;;;;;;;10.75;10.00;;;;;;;;5121208;27;46455;-66
2022/08/30 06:35:44;;;;;;;;;6.00;6.00;;;;;22.29;37.74;101228.38;5121299;27;45287;-73
2022/08/30 06:38:09;;;;;;;;;8.75;8.50;;;;;22.29;37.85;101228.38;5110472;27;45326;-69
2022/08/30 06:40:35;;;;;;;;;9.50;8.25;;;;;22.29;38.00;101234.59;5121168;27;45252;-67
2022/08/30 06:43:01;;;;;;;;;10.50;9.75;;;;;22.29;37.65;101228.38;5120541;27;46486;-62
2022/08/30 06:45:27;;;;;;;;;11.00;10.50;;;;;22.29;37.71;101229.25;5108089;27;45300;-64
2022/08/30 06:47:52;;;;;;;;;8.50;7.25;;;;;22.32;37.68;101239.78;5121305;27;45471;-63
2022/08/30 06:50:17;;;;;;;;;10.00;8.00;;;;;22.32;38.06;101234.41;5120571;27;45497;-61
2022/08/30 06:52:44;;;;;;;;;7.50;7.50;;;;;22.34;37.98;101235.19;5119908;27;45288;-62
2022/08/30 06:55:11;;;;;;;;;7.00;6.50;;;;;22.35;37.75;101239.63;5120741;27;45286;-62
2022/08/30 06:57:37;;;;;;;;;11.25;8.75;;;;;22.38;37.90;101244.81;5111565;27;45346;-62
2022/08/30 07:00:05;;;;;;;;;12.25;10.50;;;;;22.42;38.09;101247.34;5120247;27;45363;-63
2022/08/30 07:02:30;;;;;;;;;13.25;9.00;;;;;22.43;38.12;101251.72;5118146;27;47334;-63
2022/08/30 07:04:56;;;;;;;;;10.75;8.50;;;;;22.43;37.77;101252.59;5118241;27;45413;-62
2022/08/30 07:07:22;;;;;;;;;13.00;11.00;;;;;22.45;38.09;101253.38;5120460;27;45312;-62
2022/08/30 07:09:47;;;;;;;;;12.25;9.50;;;;;22.43;38.30;101249.03;5120847;27;45342;-63
2022/08/30 07:12:14;;;;;;;;;9.75;8.00;;;;;22.44;37.81;101259.69;5119647;27;46233;-63
2022/08/30 07:14:40;;;;;;;;;12.00;9.00;;;;;22.43;37.92;101267.78;5112858;27;45215;-63
2022/08/30 07:18:49;;;;;;;;;10.75;7.75;;;;;22.38;37.97;101260.88;5120948;27;45307;-63
2022/08/30 07:19:53;;;;;;;;;10.25;7.75;;;;;22.42;38.04;101272.28;5128445;27;45462;-63
2022/08/30 07:22:20;;;;;;;;;9.25;9.25;;;;;22.39;38.03;101257.25;5120294;27;46391;-63
2022/08/30 07:24:46;;;;;;;;;10.50;8.25;;;;;22.42;37.78;101272.28;5120778;27;45492;-63
2022/08/30 07:27:11;;;;;;;;;10.25;9.00;;;;;22.37;37.69;101256.47;5120494;27;45291;-63
2022/08/30 07:29:37;;;;;;;;;9.25;8.00;;;;;22.43;37.87;101270.47;5123687;27;45522;-63
2022/08/30 07:32:03;;;;;;;;;11.50;9.25;;;;;22.44;37.79;101269.50;5120561;27;45222;-63
2022/08/30 07:34:28;;;;;;;;;10.50;8.00;;;;;22.42;38.02;101269.59;5120677;27;45429;-63
2022/08/30 07:36:53;;;;;;;;;8.00;7.25;;;;;22.42;37.97;101264.25;5119860;27;46177;-63
2022/08/30 07:39:19;;;;;;;;;17.75;14.75;;;;;22.42;38.03;101266.94;5118137;27;45211;-63
2022/08/30 07:41:45;;;;;;;;;13.00;10.75;;;;;22.42;38.17;101266.06;5120499;27;45417;-63
2022/08/30 07:44:10;;;;;;;;;11.50;10.75;;;;;22.42;37.89;101260.72;5102266;27;45333;-62
2022/08/30 07:46:37;;;;;;;;;10.00;7.50;;;;;22.43;38.23;101263.31;5120625;27;45219;-63
2022/08/30 07:49:04;;;;;;;;;8.75;8.75;;;;;22.45;37.73;101260.53;5120288;27;45454;-63
2022/08/30 07:51:29;;;;;;;;;10.50;9.00;;;;;22.44;38.06;101262.38;5120149;27;45380;-62
2022/08/30 07:53:55;;;;;;;;;9.00;9.00;;;;;22.47;38.06;101264.84;5125781;27;45239;-63
2022/08/30 07:56:21;;;;;;;;;7.50;6.75;;;;;22.51;37.75;101270.91;5102159;27;45477;-63
2022/08/30 07:58:47;;;;;;;;;11.00;10.00;;;;;22.53;38.16;101271.69;5120347;27;45359;-63
2022/08/30 08:01:14;;;;;;;;;8.00;8.00;;;;;22.54;38.31;101276.97;5120119;27;46044;-62
2022/08/30 08:03:41;;;;;;;;;13.75;11.00;;;;;22.60;38.21;101277.56;5118513;27;45405;-63
2022/08/30 08:06:08;;;;;;;;;12.00;8.50;;;;;22.59;38.12;101276.72;5119175;27;45243;-63
2022/08/30 08:08:35;;;;;;;;;10.75;9.75;;;;;22.66;38.29;101280.75;5118937;27;45244;-63
2022/08/30 08:11:07;;;;;;;;;11.50;11.00;;;;;22.70;37.71;101281.44;5118245;27;48709;-63
2022/08/30 08:13:33;;;;;;;;;13.00;11.00;;;;;22.76;38.16;101280.25;5106632;27;45310;-63
2022/08/30 08:15:59;;;;;;;;;10.50;9.00;;;;;22.78;38.08;101276.53;5120314;27;45301;-63
2022/08/30 08:18:24;;;;;;;;;13.50;11.00;;;;;22.83;37.96;101287.84;5123656;27;45305;-63
2022/08/30 08:20:49;;;;;;;;;11.75;9.00;;;;;22.87;38.14;101288.53;5123495;27;45432;-63
2022/08/30 08:23:15;;;;;;;;;10.25;10.25;;;;;22.91;38.22;101290.06;5123575;27;45320;-63
2022/08/30 08:25:40;;;;;;;;;12.75;11.75;;;;;22.95;37.84;101291.59;5123166;27;45260;-63
2022/08/30 08:28:06;;;;;;;;;10.75;10.50;;;;;22.99;38.02;101301.22;5123536;27;45484;-63
2022/08/30 08:30:34;;;;;;;;;9.75;9.25;;;;;23.03;37.96;101299.19;5123403;27;46237;-63
2022/08/30 08:33:00;;;;;;;;;12.25;10.00;;;;;23.07;38.21;101299.88;5121764;27;45404;-63
2022/08/30 08:35:26;;;;;;;;;6.75;6.75;;;;;23.12;37.93;101301.38;5123353;27;45595;-63
2022/08/30 08:37:52;;;;;;;;;13.00;10.25;;;;;23.17;37.95;101303.81;5115046;27;45334;-63
2022/08/30 08:40:18;;;;;;;;;11.00;9.00;;;;;23.23;37.70;101300.75;5116154;27;46348;-63
2022/08/30 08:42:56;;;;;;;;;11.75;9.50;;;;;23.29;37.89;101305.75;5123227;27;45315;-63
2022/08/30 08:45:48;;;;;;;;;9.75;9.75;;;;;23.35;37.71;101310.75;5123173;27;45324;-63
2022/08/30 08:48:27;;;;;;;;;9.25;8.75;;;;;23.42;37.69;101322.00;5104780;27;45619;-64
2022/08/30 08:53:39;;;;;;;;;11.25;9.00;;;;;23.51;37.96;101321.44;5129621;27;45234;-63
2022/08/30 08:56:13;;;;;;;;;10.50;10.00;;;;;23.60;37.68;101333.44;5123222;27;45322;-63
2022/08/30 08:58:43;;;;;;;;;9.50;8.00;;;;;23.66;37.63;101343.81;5113421;27;45386;-63
2022/08/30 09:01:11;;;;;;;;;10.00;9.50;;;;;23.69;37.49;101338.22;5117141;27;46273;-63
2022/08/30 09:03:36;;;;;;;;;10.75;8.50;;;;;23.74;37.45;101337.97;5122340;27;45491;-63
2022/08/30 09:06:14;;;;;;;;;10.00;8.50;;;;;23.82;37.54;101337.50;5121853;27;45157;-63
2022/08/30 09:08:39;;;;;;;;;8.25;7.00;;;;;23.88;38.05;101339.81;5109028;27;45430;-63
2022/08/30 09:11:14;;;;;;;;;9.75;7.75;;;;;23.90;37.71;101335.22;5121546;27;46103;-63
2022/08/30 09:13:39;;;;;;;;;12.50;11.00;;;;;23.97;37.41;101341.94;5122814;27;45325;-63
2022/08/30 09:16:05;;;;;;;;;9.25;9.25;;;;;24.02;37.60;101342.56;5122739;27;45157;-64
2022/08/30 09:18:43;;;;;;;;;11.75;9.00;;;;;24.07;37.53;101338.72;5122610;27;45159;-63
2022/08/30 09:21:09;;;;;;;;;9.00;9.00;;;;;24.16;37.23;101343.50;5122538;27;46029;-63
2022/08/30 09:23:34;;;;;;;;;15.00;13.25;;;;;24.20;37.60;101339.69;5122368;27;45417;-63
2022/08/30 09:26:01;;;;;;;;;14.00;11.75;;;;;24.29;37.09;101343.63;5122210;27;45383;-63
2022/08/30 09:28:32;;;;;;;;;12.00;10.25;;;;;24.33;37.04;101346.00;5121821;27;45306;-64
2022/08/30 09:31:01;;;;;;;;;12.25;11.00;;;;;24.43;37.29;101340.91;5122232;27;45456;-63
2022/08/30 09:33:26;;;;;;;;;8.50;7.75;;;;;24.51;37.20;101348.47;5122194;27;45358;-64
2022/08/30 09:35:51;;;;;;;;;10.25;10.25;;;;;24.58;36.92;101348.94;5122380;27;45412;-64
2022/08/30 09:38:21;;;;;;;;;10.00;9.00;;;;;24.69;37.06;101345.63;5110096;27;45389;-63
2022/08/30 09:40:50;;;;;;;;;8.25;7.25;;;;;24.76;36.96;101346.94;5120101;27;46887;-64
2022/08/30 09:43:15;;;;;;;;;13.00;10.00;;;;;24.81;36.74;101355.56;5122297;27;45272;-64
2022/08/30 09:45:45;;;;;;;;;9.75;7.75;;;;;24.86;36.78;101353.44;5121168;27;45391;-64
2022/08/30 09:48:36;;;;;;;;;13.00;11.25;;;;;24.91;36.56;101353.16;5122039;27;45464;-64
2022/08/30 09:51:14;;;;;;;;;10.50;9.00;;;;;24.97;36.75;101342.84;5122167;27;46419;-64
2022/08/30 09:54:13;;;;;;;;;8.25;8.25;;;;;25.04;36.94;101343.31;5127787;27;45589;-64
2022/08/30 09:57:11;;;;;;;;;8.75;8.25;;;;;25.08;36.99;101335.91;5122004;27;45286;-64
2022/08/30 10:00:03;;;;;;;;;17.00;12.00;;;;;25.25;36.99;101346.41;5117725;27;45620;-64
2022/08/30 10:02:43;;;;;;;;;9.25;9.25;;;;;25.36;36.67;101347.50;5097180;27;46177;-64
2022/08/30 10:05:32;;;;;;;;;15.75;12.00;;;;;25.44;36.50;101351.44;5119816;27;45223;-64
2022/08/30 10:08:12;;;;;;;;;8.75;8.00;;;;;25.53;36.70;101349.94;5121554;27;45347;-65
2022/08/30 10:10:58;;;;;;;;;14.00;10.75;;;;;25.62;36.29;101349.34;5122102;27;45302;-64
2022/08/30 10:13:50;;;;;;;;;15.00;11.00;;;;;25.70;36.46;101348.81;5120202;27;45557;-64
2022/08/30 10:16:48;;;;;;;;;10.50;8.00;;;;;25.80;36.54;101352.56;5121648;27;45247;-65
2022/08/30 10:19:43;;;;;;;;;12.75;9.75;;;;;25.90;35.84;101346.53;5121398;27;45408;-64
2022/08/30 10:22:20;;;;;;;;;14.00;11.50;;;;;25.98;36.37;101352.28;5121594;27;45279;-63
2022/08/30 10:24:50;;;;;;;;;16.00;11.75;;;;;26.04;35.93;101345.59;5107915;27;47197;-63
2022/08/30 10:27:27;;;;;;;;;12.00;11.25;;;;;26.11;36.22;101347.78;5121264;27;45497;-63
2022/08/30 10:29:59;;;;;;;;;10.50;10.00;;;;;26.17;36.37;101349.16;5103376;27;45571;-63
2022/08/30 10:32:42;;;;;;;;;10.50;8.50;;;;;26.23;35.47;101348.72;5121254;27;45331;-64
2022/08/30 10:35:19;;;;;;;;;10.25;10.25;;;;;26.24;36.06;101344.22;5121418;27;45326;-63
2022/08/30 10:37:54;;;;;;;;;9.75;9.75;;;;;26.33;36.02;101350.78;5119535;27;45322;-63
2022/08/30 10:43:24;;;;;;;;;14.00;9.75;;;;;26.41;35.91;101349.28;5121238;27;45355;-64
2022/08/30 10:45:53;;;;;;;;;8.75;7.25;;;;;26.47;35.18;101352.50;5121239;27;45421;-64
2022/08/30 10:48:39;;;;;;;;;9.00;8.50;;;;;26.49;35.87;101351.41;5120950;27;45559;-64
2022/08/30 10:51:30;;;;;;;;;12.50;9.25;;;;;26.55;35.14;101352.78;5121600;27;45378;-64
2022/08/30 10:54:07;;;;;;;;;13.00;10.25;;;;;26.59;35.24;101347.06;5119317;27;45833;-64
2022/08/30 10:56:38;;;;;;;;;13.75;10.25;;;;;26.68;35.67;101353.63;5120857;27;46662;-64
2022/08/30 10:59:04;;;;;;;;;14.25;10.75;;;;;26.72;35.00;101351.56;5121053;27;45412;-64
2022/08/30 11:01:35;;;;;;;;;16.00;11.00;;;;;26.73;34.92;101351.47;5121160;27;45370;-64
2022/08/30 11:04:27;;;;;;;;;13.25;10.00;;;;;26.76;35.03;101356.63;5118993;27;45474;-64
2022/08/30 11:07:01;;;;;;;;;11.75;9.75;;;;;26.78;35.04;101351.16;5100357;27;46124;-64
2022/08/30 11:09:59;;;;;;;;;13.75;11.75;;;;;26.81;35.03;101350.06;5100516;27;45306;-63
2022/08/30 11:12:24;;;;;;;;;13.50;9.75;;;;;26.80;34.79;101354.56;5112624;27;45657;-64
2022/08/30 11:14:51;;;;;;;;;13.00;10.50;;;;;26.83;34.85;101353.50;5088575;27;45243;-64
2022/08/30 11:17:30;;;;;;;;;12.50;12.50;;;;;26.85;35.21;101356.94;5102469;27;46293;-64
2022/08/30 11:20:00;;;;;;;;;9.25;9.25;;;;;26.87;35.30;101350.47;5108222;27;45392;-64
2022/08/30 11:22:33;;;;;;;;;13.00;10.25;;;;;26.90;34.81;101350.22;5120730;27;45205;-63
2022/08/30 11:25:08;;;;;;;;;12.50;9.75;;;;;26.96;34.73;101348.94;5111276;27;45239;-64
2022/08/30 11:27:47;;;;;;;;;14.00;12.50;;;;;26.98;34.61;101347.00;5099892;27;45227;-64
2022/08/30 11:30:24;;;;;;;;;13.50;13.50;;;;;27.03;34.58;101352.00;5100207;27;45362;-64
2022/08/30 11:32:56;;;;;;;;;11.50;11.00;;;;;27.06;34.86;101349.09;5107645;27;45333;-64
2022/08/30 11:35:48;;;;;;;;;15.50;13.75;;;;;27.10;35.33;101345.19;5105357;27;45736;-64
2022/08/30 11:38:27;;;;;;;;;17.50;15.25;;;;;27.12;34.91;101345.94;5111103;27;46050;-64